Time;durP1;ratioP1;P1;durP2;ratioP2;P2;SDS_P1;SDS_P2;PMS_P1;PMS_P2;Temp;Humidity;BMP_temperature;BMP_pressure;BME280_temperature;BME280_humidity;BME280_pressure;Samples;Min_cycle;Max_cycle;Signal;HPM_P1;HPM_P2
2022/11/24 00:00:37;;;;;;;34.83;15.93;;;;;;;8.46;82.80;98694.50;3144437;28;20382;-72
2022/11/24 00:02:09;;;;;;;38.05;16.27;;;;;;;8.40;82.58;98693.09;3140130;28;20049;-72
2022/11/24 00:03:40;;;;;;;35.22;16.67;;;;;;;8.42;82.93;98696.41;3139343;28;20383;-71
2022/11/24 00:05:12;;;;;;;34.05;16.08;;;;;;;8.41;82.69;98702.53;3139382;28;20626;-72
2022/11/24 00:06:44;;;;;;;31.27;15.07;;;;;;;8.40;82.61;98700.84;3139351;28;20063;-72
2022/11/24 00:08:17;;;;;;;33.22;15.45;;;;;;;8.23;82.63;98672.38;3139233;28;20135;-72
2022/11/24 00:09:49;;;;;;;30.08;15.88;;;;;;;8.37;82.75;98703.59;3139051;28;20091;-72
2022/11/24 00:11:24;;;;;;;29.45;14.60;;;;;;;8.33;82.67;98696.88;3139117;28;20060;-72
2022/11/24 00:12:55;;;;;;;32.15;15.15;;;;;;;8.34;82.75;98698.56;3139353;28;20052;-71
2022/11/24 00:14:27;;;;;;;29.00;15.75;;;;;;;8.33;82.96;98707.25;3139170;28;20832;-72
2022/11/24 00:16:04;;;;;;;30.60;15.50;;;;;;;8.32;82.77;98705.59;3139123;28;20048;-72
2022/11/24 00:17:36;;;;;;;27.77;14.52;;;;;;;8.30;82.78;98701.41;3139031;28;20063;-71
2022/11/24 00:19:09;;;;;;;32.53;14.93;;;;;;;8.22;82.67;98691.41;3139240;28;20056;-71
2022/11/24 00:20:40;;;;;;;29.75;14.25;;;;;;;8.26;82.46;98694.72;3139071;28;20440;-72
2022/11/24 00:22:12;;;;;;;35.97;15.85;;;;;;;8.25;82.80;98709.41;3138808;28;20515;-72
2022/11/24 00:23:45;;;;;;;27.10;14.48;;;;;;;8.20;82.50;98696.69;3139175;28;20105;-72
2022/11/24 00:25:16;;;;;;;36.90;15.20;;;;;;;8.23;82.46;98711.25;3139449;28;20060;-72
2022/11/24 00:26:49;;;;;;;32.15;14.40;;;;;;;8.21;82.56;98702.72;3139038;28;20253;-71
2022/11/24 00:28:20;;;;;;;28.95;13.10;;;;;;;8.18;82.69;98716.69;3139041;28;20492;-72
2022/11/24 00:29:52;;;;;;;29.10;14.20;;;;;;;8.18;82.70;98702.88;3138857;28;20090;-72
2022/11/24 00:31:27;;;;;;;29.75;13.57;;;;;;;8.15;82.53;98703.03;3138975;28;20044;-72
2022/11/24 00:32:59;;;;;;;25.90;14.43;;;;;;;8.17;82.42;98703.81;3139051;28;20064;-72
2022/11/24 00:34:30;;;;;;;27.58;13.77;;;;;;;8.16;82.31;98707.31;3138874;28;20554;-71
2022/11/24 00:36:02;;;;;;;29.90;13.52;;;;;;;8.14;82.59;98702.22;3138805;28;20131;-73
2022/11/24 00:37:34;;;;;;;27.33;13.50;;;;;;;8.13;82.26;98695.38;3139036;28;20052;-73
2022/11/24 00:39:07;;;;;;;35.20;14.27;;;;;;;8.03;82.23;98678.59;3138900;28;20071;-73
2022/11/24 00:40:38;;;;;;;26.23;12.90;;;;;;;8.11;82.41;98692.00;3138789;28;20587;-72
2022/11/24 00:42:13;;;;;;;31.90;13.48;;;;;;;8.13;82.17;98694.50;3138598;28;20208;-72
2022/11/24 00:43:45;;;;;;;27.70;13.30;;;;;;;8.13;82.43;98697.09;3139112;28;20435;-72
2022/11/24 00:45:17;;;;;;;25.75;13.40;;;;;;;8.13;82.13;98697.09;3138875;28;20056;-73
2022/11/24 00:46:48;;;;;;;28.90;14.10;;;;;;;8.10;82.04;98702.44;3138845;28;20041;-73
2022/11/24 00:48:20;;;;;;;29.38;13.77;;;;;;;8.06;82.08;98698.34;3135488;28;20118;-72
2022/11/24 00:49:52;;;;;;;25.45;13.32;;;;;;;8.07;82.08;98706.03;3139062;28;20049;-73
2022/11/24 00:51:26;;;;;;;27.05;13.18;;;;;;;8.06;82.05;98708.72;3138852;28;20513;-72
2022/11/24 00:52:58;;;;;;;25.55;12.93;;;;;;;8.02;82.20;98696.84;3138485;28;20072;-71
2022/11/24 00:54:30;;;;;;;28.20;13.32;;;;;;;8.02;82.03;98705.44;3139060;28;20053;-70
2022/11/24 00:56:03;;;;;;;27.90;12.32;;;;;;;8.01;82.28;98705.53;3138787;28;20100;-71
2022/11/24 00:57:35;;;;;;;27.45;12.38;;;;;;;7.98;82.09;98703.91;3138778;28;20092;-72
2022/11/24 00:59:07;;;;;;;22.15;11.20;;;;;;;8.00;82.04;98701.25;3139431;28;20731;-71
2022/11/24 01:00:39;;;;;;;25.17;10.85;;;;;;;7.98;82.07;98706.50;3141510;28;20484;-72
2022/11/24 01:02:11;;;;;;;23.00;10.68;;;;;;;8.00;82.04;98707.28;3141087;28;20140;-71
2022/11/24 01:03:43;;;;;;;24.75;11.05;;;;;;;8.00;81.94;98712.47;3141388;28;20048;-71
2022/11/24 01:05:15;;;;;;;23.42;10.15;;;;;;;7.98;81.82;98712.53;3141497;28;20048;-72
2022/11/24 01:06:46;;;;;;;19.77;9.00;;;;;;;7.98;81.66;98706.50;3141246;28;20121;-71
2022/11/24 01:08:17;;;;;;;21.10;8.73;;;;;;;7.95;81.58;98707.50;3141337;28;20518;-71
2022/11/24 01:09:49;;;;;;;16.58;8.10;;;;;;;7.94;81.30;98711.03;3141458;28;20059;-71
2022/11/24 01:11:23;;;;;;;18.98;8.23;;;;;;;7.93;81.10;98713.72;3141180;28;20484;-71
2022/11/24 01:12:55;;;;;;;;;;;;;;;7.83;81.31;98709.91;3141903;28;20193;-71
2022/11/24 01:14:28;;;;;;;20.33;8.30;;;;;;;7.80;81.19;98713.47;3141037;28;19975;-71
2022/11/24 01:16:00;;;;;;;20.55;8.32;;;;;;;7.78;81.24;98706.69;3140947;28;20413;-72
2022/11/24 01:17:32;;;;;;;20.45;9.25;;;;;;;7.79;81.42;98714.41;3141439;28;20055;-72
2022/11/24 01:19:04;;;;;;;20.90;10.00;;;;;;;7.78;81.29;98720.53;3141267;28;20560;-71
2022/11/24 01:20:37;;;;;;;23.25;10.80;;;;;;;7.64;81.35;98697.88;3141078;28;20056;-70
2022/11/24 01:22:09;;;;;;;21.05;10.57;;;;;;;7.71;81.59;98709.59;3140693;28;20056;-71
2022/11/24 01:23:41;;;;;;;24.02;11.55;;;;;;;7.77;81.61;98716.22;3141257;28;20561;-70
2022/11/24 01:25:13;;;;;;;25.58;12.50;;;;;;;7.76;81.57;98717.16;3128740;28;20454;-70
2022/11/24 01:26:45;;;;;;;25.20;12.57;;;;;;;7.77;81.51;98723.19;3139717;28;20524;-71
2022/11/24 01:28:18;;;;;;;26.42;12.57;;;;;;;7.77;81.46;98721.41;3140992;28;20103;-71
2022/11/24 01:29:50;;;;;;;25.13;12.90;;;;;;;7.73;81.78;98719.91;3141176;28;20048;-72
2022/11/24 01:31:23;;;;;;;22.58;11.30;;;;;;;7.69;81.68;98718.38;3140902;28;20048;-72
2022/11/24 01:32:55;;;;;;;28.42;12.02;;;;;;;7.72;81.57;98726.03;3141023;28;20048;-71
2022/11/24 01:34:27;;;;;;;23.02;11.02;;;;;;;7.71;81.66;98729.50;3140866;28;20048;-72
2022/11/24 01:35:58;;;;;;;24.75;11.98;;;;;;;7.64;82.00;98730.75;3140999;28;20070;-72
2022/11/24 01:37:30;;;;;;;21.20;12.10;;;;;;;7.70;81.90;98740.78;3141043;28;20052;-72
2022/11/24 01:39:02;;;;;;;27.95;13.13;;;;;;;7.70;81.99;98739.03;3140609;28;20053;-72
2022/11/24 01:40:34;;;;;;;24.90;12.63;;;;;;;7.68;81.76;98733.09;3141011;28;20056;-72
2022/11/24 01:42:06;;;;;;;26.58;13.02;;;;;;;7.67;81.81;98736.59;3141096;28;20294;-72
2022/11/24 01:43:40;;;;;;;26.58;13.80;;;;;;;7.57;82.06;98724.16;3140957;28;20052;-72
2022/11/24 01:45:31;;;;;;;26.70;14.25;;;;;;;7.65;81.85;98742.78;3140761;28;20747;-72
2022/11/24 01:47:13;;;;;;;29.75;13.82;;;;;;;7.65;82.01;98735.00;3140726;28;20106;-72
2022/11/24 01:48:49;;;;;;;28.10;13.65;;;;;;;7.64;82.05;98736.75;3140795;28;20120;-72
2022/11/24 01:50:21;;;;;;;24.80;13.65;;;;;;;7.64;81.89;98730.75;3140789;28;20063;-70
2022/11/24 01:51:58;;;;;;;28.77;13.88;;;;;;;7.62;82.09;98723.03;3142689;28;20487;-70
2022/11/24 01:53:30;;;;;;;26.58;14.88;;;;;;;7.62;82.31;98727.38;3137104;28;20060;-72
2022/11/24 01:55:07;;;;;;;29.63;14.27;;;;;;;7.49;82.06;98712.44;3136581;28;20082;-72
2022/11/24 01:56:42;;;;;;;28.95;14.73;;;;;;;7.58;82.22;98742.25;3136142;28;20337;-72
2022/11/24 01:58:19;;;;;;;27.45;13.57;;;;;;;7.59;82.21;98738.72;3136280;28;20048;-72
2022/11/24 01:59:57;;;;;;;26.85;13.68;;;;;;;7.58;82.44;98738.81;3135916;28;20885;-72
2022/11/24 02:01:30;;;;;;;25.40;12.70;;;;;;;7.52;82.46;98734.78;3135727;28;20053;-71
2022/11/24 02:03:03;;;;;;;32.00;14.30;;;;;;;7.56;82.39;98743.22;3137201;28;20106;-72
2022/11/24 02:04:37;;;;;;;25.35;13.18;;;;;;;7.56;82.16;98738.06;3137540;28;20344;-72
2022/11/24 02:06:10;;;;;;;26.20;13.60;;;;;;;7.56;82.16;98738.06;3135871;28;20139;-72
2022/11/24 02:07:43;;;;;;;23.63;12.38;;;;;;;7.52;82.23;98729.59;3135472;28;20080;-72
2022/11/24 02:09:22;;;;;;;27.67;13.45;;;;;;;7.55;82.33;98739.81;3136363;28;20492;-73
2022/11/24 02:10:55;;;;;;;25.73;13.45;;;;;;;7.55;82.18;98738.97;3135339;28;20311;-73
2022/11/24 02:12:28;;;;;;;27.42;13.73;;;;;;;7.53;82.24;98729.50;3135559;28;20140;-73
2022/11/24 02:14:00;;;;;;;26.42;13.38;;;;;;;7.50;82.37;98731.41;3136864;28;20972;-73
2022/11/24 02:15:35;;;;;;;25.00;13.00;;;;;;;7.52;82.17;98727.84;3136872;28;20334;-73
2022/11/24 02:17:08;;;;;;;29.02;13.82;;;;;;;7.52;82.32;98722.66;3135775;28;20106;-73
2022/11/24 02:18:42;;;;;;;26.92;13.63;;;;;;;7.50;82.36;98737.44;3136545;28;20057;-73
2022/11/24 02:20:16;;;;;;;26.10;13.75;;;;;;;7.50;82.21;98734.00;3136894;28;20064;-71
2022/11/24 02:21:47;;;;;;;25.48;13.98;;;;;;;7.50;82.23;98736.59;3136890;28;20161;-71
2022/11/24 02:23:23;;;;;;;22.88;12.90;;;;;;;7.43;82.14;98717.09;3135920;28;20114;-72
2022/11/24 02:25:01;;;;;;;29.35;14.40;;;;;;;7.49;82.10;98732.34;3136221;28;20606;-73
2022/11/24 02:26:40;;;;;;;26.17;14.02;;;;;;;7.47;82.13;98724.63;3136040;28;20117;-72
2022/11/24 02:28:15;;;;;;;26.73;14.10;;;;;;;7.43;82.41;98720.53;3136134;28;20614;-71
2022/11/24 02:29:48;;;;;;;26.55;14.80;;;;;;;7.46;82.39;98730.75;3136487;28;20059;-74
2022/11/24 02:31:20;;;;;;;28.58;14.88;;;;;;;7.44;82.47;98727.38;3136325;28;20373;-72
2022/11/24 02:32:51;;;;;;;26.27;14.52;;;;;;;7.44;82.45;98726.53;3136117;28;20139;-71
2022/11/24 02:34:23;;;;;;;29.95;14.98;;;;;;;7.42;82.31;98724.00;3136132;28;20100;-71
2022/11/24 02:35:54;;;;;;;27.00;14.10;;;;;;;7.43;82.05;98725.72;3136088;28;20052;-72
2022/11/24 02:37:26;;;;;;;23.42;13.55;;;;;;;7.42;82.30;98726.59;3136052;28;20052;-72
2022/11/24 02:38:58;;;;;;;27.77;15.00;;;;;;;7.40;82.11;98725.03;3135341;28;20048;-71
2022/11/24 02:40:31;;;;;;;29.77;15.35;;;;;;;7.39;82.23;98724.16;3136094;28;20062;-71
2022/11/24 02:42:08;;;;;;;25.95;13.68;;;;;;;7.34;82.21;98727.94;3136134;28;20823;-71
2022/11/24 02:43:43;;;;;;;25.80;13.57;;;;;;;7.28;82.39;98724.72;3135900;28;20052;-71
2022/11/24 02:45:16;;;;;;;25.98;15.40;;;;;;;7.27;82.15;98722.19;3135986;28;20060;-69
2022/11/24 02:46:48;;;;;;;29.13;14.35;;;;;;;7.24;82.45;98733.53;3135925;28;20448;-71
2022/11/24 02:48:20;;;;;;;31.08;15.05;;;;;;;7.18;82.49;98720.88;3136285;28;20108;-72
2022/11/24 02:49:53;;;;;;;26.73;13.95;;;;;;;7.23;82.53;98729.28;3135898;28;20059;-72
2022/11/24 02:51:25;;;;;;;25.15;13.73;;;;;;;7.24;82.49;98725.75;3135403;28;20044;-71
2022/11/24 02:52:56;;;;;;;27.75;15.07;;;;;;;7.24;82.37;98724.94;3135695;28;20057;-70
2022/11/24 02:54:28;;;;;;;29.52;15.93;;;;;;;7.22;82.30;98727.59;3136272;28;20053;-72
2022/11/24 02:56:01;;;;;;;30.90;14.75;;;;;;;7.22;82.33;98730.19;3136325;28;20235;-72
2022/11/24 02:57:34;;;;;;;28.90;14.40;;;;;;;7.21;82.53;98730.25;3133666;28;20106;-72
2022/11/24 02:59:06;;;;;;;28.42;14.52;;;;;;;7.19;82.47;98726.91;3136443;28;20100;-72
2022/11/24 03:00:38;;;;;;;29.15;15.15;;;;;;;7.15;82.41;98728.78;3136566;28;20158;-71
2022/11/24 03:02:10;;;;;;;29.45;14.00;;;;;;;7.05;82.48;98718.06;3136480;28;20064;-72
2022/11/24 03:03:42;;;;;;;28.27;14.80;;;;;;;6.92;82.43;98703.19;3136364;28;20512;-72
2022/11/24 03:05:14;;;;;;;29.40;14.68;;;;;;;7.07;82.46;98734.34;3136765;28;20056;-72
2022/11/24 03:06:46;;;;;;;29.10;14.65;;;;;;;7.03;82.46;98738.00;3136520;28;20084;-72
2022/11/24 03:08:19;;;;;;;32.20;14.68;;;;;;;7.00;82.43;98743.31;3135945;28;20139;-72
2022/11/24 03:09:51;;;;;;;27.87;15.23;;;;;;;6.96;82.62;98740.97;3135313;28;20838;-72
2022/11/24 03:11:22;;;;;;;29.92;14.88;;;;;;;6.94;82.39;98750.53;3134901;28;20609;-71
2022/11/24 03:12:56;;;;;;;28.00;14.02;;;;;;;6.93;82.53;98749.69;3134864;28;20592;-71
2022/11/24 03:14:28;;;;;;;29.65;14.55;;;;;;;6.89;82.70;98748.19;3135037;28;20251;-71
2022/11/24 03:16:00;;;;;;;28.30;13.80;;;;;;;6.89;82.48;98748.19;3135097;28;20056;-72
2022/11/24 03:17:32;;;;;;;30.92;14.43;;;;;;;6.90;82.82;98744.66;3135577;28;20647;-71
2022/11/24 03:19:04;;;;;;;31.63;14.85;;;;;;;6.89;82.53;98748.19;3135908;28;20071;-73
2022/11/24 03:20:37;;;;;;;26.88;13.48;;;;;;;6.89;82.56;98760.25;3135830;28;20060;-70
2022/11/24 03:22:09;;;;;;;26.25;13.88;;;;;;;6.70;82.38;98726.66;3136240;28;20048;-70
2022/11/24 03:23:40;;;;;;;26.35;13.45;;;;;;;6.87;82.28;98752.59;3136261;28;20514;-71
2022/11/24 03:25:12;;;;;;;27.00;14.80;;;;;;;6.79;82.49;98746.91;3136016;28;20112;-71
2022/11/24 03:26:43;;;;;;;24.33;13.07;;;;;;;6.82;82.13;98760.53;3136088;28;20561;-71
2022/11/24 03:28:16;;;;;;;23.25;12.98;;;;;;;6.81;82.38;98766.63;3136370;28;20067;-71
2022/11/24 03:29:48;;;;;;;;;;;;;;;6.69;82.26;98758.63;3136698;28;20611;-71
2022/11/24 03:31:20;;;;;;;26.48;12.93;;;;;;;6.66;82.74;98763.94;3135764;28;19935;-71
2022/11/24 03:32:52;;;;;;;24.98;13.20;;;;;;;6.40;82.60;98721.97;3136233;28;20094;-72
2022/11/24 03:34:25;;;;;;;31.38;13.40;;;;;;;6.65;82.75;98759.66;3136148;28;20167;-72
2022/11/24 03:35:57;;;;;;;27.20;14.27;;;;;;;6.61;82.68;98751.19;3135417;28;20095;-72
2022/11/24 03:37:29;;;;;;;26.50;12.93;;;;;;;6.67;82.55;98760.44;3134811;28;20079;-72
2022/11/24 03:39:01;;;;;;;30.02;13.35;;;;;;;6.65;82.48;98759.66;3134719;28;20082;-72
2022/11/24 03:40:33;;;;;;;23.88;13.27;;;;;;;6.67;82.62;98763.84;3134850;28;20423;-73
2022/11/24 03:42:05;;;;;;;31.38;13.43;;;;;;;6.66;82.73;98762.19;3135321;28;20349;-73
2022/11/24 03:43:39;;;;;;;20.98;11.95;;;;;;;6.60;82.66;98752.09;3135612;28;20541;-72
2022/11/24 03:45:11;;;;;;;21.75;12.00;;;;;;;6.63;82.66;98762.31;3136016;28;20139;-73
2022/11/24 03:46:42;;;;;;;22.42;12.05;;;;;;;6.65;82.75;98767.41;3135213;28;20456;-73
2022/11/24 03:48:14;;;;;;;24.70;11.48;;;;;;;6.61;82.64;98759.78;3134788;28;20056;-71
2022/11/24 03:49:46;;;;;;;20.30;11.68;;;;;;;6.55;82.53;98756.66;3134417;28;20049;-70
2022/11/24 03:51:18;;;;;;;21.58;11.55;;;;;;;6.61;82.36;98767.53;3135872;28;20183;-70
2022/11/24 03:52:50;;;;;;;20.20;11.30;;;;;;;6.61;82.58;98769.31;3134838;28;20170;-71
2022/11/24 03:54:21;;;;;;;24.58;12.77;;;;;;;6.61;82.52;98774.47;3140574;28;20120;-73
2022/11/24 03:55:52;;;;;;;29.08;12.73;;;;;;;6.61;82.32;98772.72;3144764;28;20410;-71
2022/11/24 03:57:23;;;;;;;29.00;14.38;;;;;;;6.59;82.11;98769.34;3144283;28;20510;-72
2022/11/24 03:58:57;;;;;;;29.45;13.77;;;;;;;6.59;82.22;98774.53;3144528;28;20049;-72
2022/11/24 04:00:28;;;;;;;23.65;14.32;;;;;;;6.48;82.34;98755.25;3144325;28;20454;-71
2022/11/24 04:02:00;;;;;;;29.63;14.52;;;;;;;6.55;82.27;98767.00;3144409;28;20048;-73
2022/11/24 04:03:32;;;;;;;24.45;13.10;;;;;;;6.53;82.47;98768.81;3144450;28;20525;-74
2022/11/24 04:05:05;;;;;;;26.05;13.02;;;;;;;6.52;82.34;98770.56;3144591;28;20048;-74
2022/11/24 04:06:37;;;;;;;23.88;12.68;;;;;;;6.52;82.41;98767.97;3144388;28;20056;-73
2022/11/24 04:08:08;;;;;;;22.60;12.18;;;;;;;6.52;82.41;98769.72;3144429;28;20434;-72
2022/11/24 04:09:39;;;;;;;22.40;12.00;;;;;;;6.51;82.56;98763.72;3144311;28;20056;-73
2022/11/24 04:12:42;;;;;;;22.40;11.77;;;;;;;6.50;82.43;98768.94;3144414;28;20055;-72
2022/11/24 04:13:03;;;;;;;26.02;11.13;;;;;;;6.51;82.60;98776.66;3144191;28;20055;-73
2022/11/24 04:14:35;;;;;;;26.63;11.32;;;;;;;6.50;82.40;98769.78;3144207;28;20052;-73
2022/11/24 04:16:07;;;;;;;22.75;12.00;;;;;;;6.50;82.22;98774.94;3144252;28;20135;-73
2022/11/24 04:17:39;;;;;;;23.25;11.35;;;;;;;6.48;82.15;98776.78;3144187;28;20041;-74
2022/11/24 04:19:11;;;;;;;23.83;11.75;;;;;;;6.49;82.34;98775.03;3144166;28;20101;-72
2022/11/24 04:20:43;;;;;;;25.70;11.75;;;;;;;6.47;82.23;98775.09;3144235;28;20041;-72
2022/11/24 04:22:15;;;;;;;31.33;13.73;;;;;;;6.45;82.06;98776.91;3144322;28;20436;-74
2022/11/24 04:23:47;;;;;;;22.88;12.02;;;;;;;6.46;82.30;98788.09;3144295;28;20098;-71
2022/11/24 04:25:19;;;;;;;24.38;10.95;;;;;;;6.46;82.03;98782.94;3144127;28;20049;-72
2022/11/24 04:26:50;;;;;;;25.05;12.00;;;;;;;6.44;82.01;98780.41;3144246;28;20411;-72
2022/11/24 04:28:22;;;;;;;23.73;11.18;;;;;;;6.43;82.29;98788.25;3144153;28;20051;-71
2022/11/24 04:29:54;;;;;;;19.73;11.02;;;;;;;6.45;82.08;98776.91;3143938;28;20110;-70
2022/11/24 04:31:26;;;;;;;27.48;11.23;;;;;;;6.37;82.15;98777.25;3144070;28;20040;-70
2022/11/24 04:32:58;;;;;;;20.77;10.90;;;;;;;6.38;82.26;98781.50;3144193;28;20437;-70
2022/11/24 04:34:30;;;;;;;25.58;11.30;;;;;;;6.39;82.09;98784.97;3143359;28;20125;-71
2022/11/24 04:36:02;;;;;;;26.15;10.65;;;;;;;6.41;82.25;98783.13;3144158;28;20518;-71
2022/11/24 04:37:34;;;;;;;21.25;10.98;;;;;;;6.37;82.54;98779.84;3143973;28;20048;-72
2022/11/24 04:39:06;;;;;;;27.43;12.27;;;;;;;6.39;82.49;98782.38;3143300;28;20113;-72
2022/11/24 04:40:38;;;;;;;24.30;11.15;;;;;;;6.15;82.57;98748.94;3141955;28;20048;-72
2022/11/24 04:42:10;;;;;;;23.60;11.55;;;;;;;6.37;82.43;98790.19;3144032;28;20124;-71
2022/11/24 04:43:42;;;;;;;20.88;10.88;;;;;;;6.38;82.40;98791.00;3143758;28;20102;-72
2022/11/24 04:45:15;;;;;;;24.65;11.80;;;;;;;6.36;82.52;98785.09;3144105;28;20044;-72
2022/11/24 04:46:47;;;;;;;25.73;11.70;;;;;;;6.35;82.65;98791.16;3144081;28;20045;-71
2022/11/24 04:48:19;;;;;;;27.02;11.65;;;;;;;6.38;82.85;98788.44;3144127;28;20048;-71
2022/11/24 04:49:51;;;;;;;25.98;13.50;;;;;;;6.38;82.63;98796.19;3144220;28;20053;-72
2022/11/24 04:51:22;;;;;;;26.58;12.75;;;;;;;6.27;82.80;98773.41;3144030;28;20135;-72
2022/11/24 04:52:54;;;;;;;32.38;13.32;;;;;;;6.38;82.68;98791.84;3143872;28;20066;-72
2022/11/24 04:54:26;;;;;;;23.85;11.15;;;;;;;6.41;82.71;98801.22;3144037;28;20106;-72
2022/11/24 04:55:59;;;;;;;27.20;11.52;;;;;;;5.97;82.67;98723.88;3143959;28;20513;-70
2022/11/24 04:57:31;;;;;;;24.67;11.87;;;;;;;6.44;82.81;98795.91;3141393;28;20048;-71
2022/11/24 04:59:01;;;;;;;25.95;10.55;;;;;;;6.48;82.87;98804.41;3144410;28;20310;-72
2022/11/24 05:00:35;;;;;;;26.48;10.60;;;;;;;6.45;82.53;98796.75;3144001;28;20115;-73
2022/11/24 05:02:08;;;;;;;26.42;11.65;;;;;;;6.46;82.67;98808.78;3143774;28;20063;-73
2022/11/24 05:03:39;;;;;;;21.13;10.88;;;;;;;6.44;82.77;98798.50;3144023;28;20052;-73
2022/11/24 05:05:11;;;;;;;24.63;11.32;;;;;;;6.44;82.58;98797.66;3143878;28;20054;-73
2022/11/24 05:06:43;;;;;;;28.55;11.90;;;;;;;6.45;82.51;98802.78;3144112;28;20049;-73
2022/11/24 05:08:14;;;;;;;24.40;12.23;;;;;;;6.46;82.45;98803.63;3144236;28;20894;-72
2022/11/24 05:11:38;;;;;;;27.15;11.25;;;;;;;6.46;82.46;98811.38;3125928;28;20051;-72
2022/11/24 05:13:11;;;;;;;26.20;12.10;;;;;;;6.49;82.74;98808.66;3143887;28;20052;-72
2022/11/24 05:14:43;;;;;;;25.17;11.95;;;;;;;6.48;82.73;98810.41;3143915;28;20053;-72
2022/11/24 05:16:17;;;;;;;27.58;11.90;;;;;;;6.50;82.93;98810.31;3144113;28;20052;-72
2022/11/24 05:17:49;;;;;;;24.42;11.48;;;;;;;6.49;82.98;98809.50;3143861;28;20139;-72
2022/11/24 05:19:21;;;;;;;29.58;12.20;;;;;;;6.52;82.76;98814.53;3143659;28;20052;-72
2022/11/24 05:20:53;;;;;;;22.05;11.52;;;;;;;6.39;82.72;98795.31;3144167;28;20051;-72
2022/11/24 05:22:25;;;;;;;19.23;11.27;;;;;;;6.52;82.87;98811.09;3143624;28;20072;-72
2022/11/24 05:23:57;;;;;;;22.52;11.05;;;;;;;6.54;82.74;98817.88;3143434;28;20048;-71
2022/11/24 05:25:28;;;;;;;23.15;11.02;;;;;;;6.34;82.68;98785.16;3143992;28;20385;-72
2022/11/24 05:27:00;;;;;;;23.90;11.27;;;;;;;6.55;82.73;98819.56;3144183;28;20044;-72
2022/11/24 05:28:32;;;;;;;25.60;11.60;;;;;;;6.53;82.88;98813.59;3143866;28;20045;-71
2022/11/24 05:30:04;;;;;;;25.17;11.45;;;;;;;6.57;82.84;98819.50;3143790;28;20048;-72
2022/11/24 05:31:37;;;;;;;21.35;11.07;;;;;;;6.59;82.89;98818.50;3143778;28;20060;-72
2022/11/24 05:33:11;;;;;;;23.33;11.57;;;;;;;6.59;82.73;98820.25;3144098;28;20056;-72
2022/11/24 05:34:43;;;;;;;20.23;11.43;;;;;;;6.60;82.63;98824.53;3143662;28;20117;-72
2022/11/24 05:38:01;;;;;;;19.60;10.73;;;;;;;6.60;82.97;98819.38;3143317;28;20559;-71
2022/11/24 05:39:33;;;;;;;23.52;11.38;;;;;;;6.60;82.78;98822.78;3143820;28;20381;-71
2022/11/24 05:41:06;;;;;;;29.13;11.57;;;;;;;6.45;82.91;98799.34;3143771;28;20053;-71
2022/11/24 05:42:39;;;;;;;22.80;11.23;;;;;;;6.65;82.98;98826.91;3143854;28;20087;-72
2022/11/24 05:44:11;;;;;;;24.27;11.65;;;;;;;6.67;82.97;98832.88;3143679;28;20078;-73
2022/11/24 05:45:43;;;;;;;25.10;11.90;;;;;;;6.68;82.90;98831.94;3143901;28;20060;-70
2022/11/24 05:47:16;;;;;;;25.10;11.98;;;;;;;6.72;82.98;98828.34;3145864;28;20056;-71
2022/11/24 05:48:48;;;;;;;28.92;11.55;;;;;;;6.72;82.79;98830.91;3146054;28;20052;-73
2022/11/24 05:50:22;;;;;;;32.58;12.23;;;;;;;6.73;82.64;98833.41;3146007;28;20076;-73
2022/11/24 05:51:54;;;;;;;22.77;12.73;;;;;;;6.77;82.50;98839.28;3146510;28;20044;-71
2022/11/24 05:53:26;;;;;;;28.55;12.68;;;;;;;6.76;82.53;98825.53;3145167;28;20057;-71
2022/11/24 05:54:57;;;;;;;29.60;13.45;;;;;;;6.88;82.79;98837.06;3145850;28;20568;-73
2022/11/24 05:56:29;;;;;;;33.72;15.43;;;;;;;6.94;82.73;98831.59;3144732;28;20063;-73
2022/11/24 05:58:02;;;;;;;27.80;14.45;;;;;;;7.04;82.78;98837.22;3144322;28;20048;-73
2022/11/24 05:59:32;;;;;;;27.98;12.90;;;;;;;7.13;82.77;98835.94;3144634;28;20110;-72
2022/11/24 06:01:06;;;;;;;34.15;13.05;;;;;;;7.21;82.78;98833.81;3144044;28;20186;-70
2022/11/24 06:02:38;;;;;;;29.52;12.70;;;;;;;7.32;82.93;98841.09;3144317;28;20109;-71
2022/11/24 06:04:10;;;;;;;28.45;15.20;;;;;;;7.41;82.94;98846.69;3144552;28;20063;-70
2022/11/24 06:05:46;;;;;;;32.92;13.93;;;;;;;7.49;82.36;98849.75;3144766;28;20110;-72
2022/11/24 06:07:17;;;;;;;36.75;18.20;;;;;;;7.52;81.81;98849.59;3144927;28;20057;-71
2022/11/24 06:08:48;;;;;;;91.88;47.67;;;;;;;7.59;81.44;98850.13;3144347;28;20051;-68
2022/11/24 06:10:22;;;;;;;50.70;25.33;;;;;;;7.64;81.36;98848.19;3144113;28;20111;-68
2022/11/24 06:11:54;;;;;;;47.92;23.85;;;;;;;7.69;81.13;98848.81;3144404;28;20045;-70
2022/11/24 06:13:26;;;;;;;30.38;16.92;;;;;;;7.79;80.83;98846.59;3144677;28;20044;-71
2022/11/24 06:14:58;;;;;;;36.22;14.73;;;;;;;7.88;81.01;98847.91;3144867;28;20053;-76
2022/11/24 06:16:30;;;;;;;31.98;15.07;;;;;;;8.03;80.86;98859.25;3144045;28;20508;-69
2022/11/24 06:18:04;;;;;;;28.85;13.93;;;;;;;8.18;80.67;98855.88;3144654;28;20098;-71
2022/11/24 06:19:35;;;;;;;28.10;13.30;;;;;;;8.29;80.25;98865.72;3144334;28;20106;-69
2022/11/24 06:21:08;;;;;;;28.75;13.55;;;;;;;8.09;79.95;98825.25;3144388;28;20129;-68
2022/11/24 06:22:40;;;;;;;33.75;13.93;;;;;;;8.39;79.71;98867.78;3142448;28;20101;-70
2022/11/24 06:24:13;;;;;;;33.67;12.90;;;;;;;8.46;79.51;98862.28;3145425;28;20048;-70
2022/11/24 06:25:45;;;;;;;46.35;14.82;;;;;;;8.58;79.14;98879.84;3144846;28;20143;-70
2022/11/24 06:27:17;;;;;;;33.35;13.95;;;;;;;8.72;79.03;98869.56;3144329;28;20105;-70
2022/11/24 06:28:49;;;;;;;30.88;13.38;;;;;;;8.85;78.51;98869.78;3144676;28;20064;-69
2022/11/24 06:30:21;;;;;;;27.70;13.20;;;;;;;9.04;78.45;98869.63;3145484;28;20154;-71
2022/11/24 06:31:53;;;;;;;28.95;14.32;;;;;;;9.21;77.96;98860.94;3144270;28;20040;-71
2022/11/24 06:33:26;;;;;;;40.78;22.70;;;;;;;9.49;77.29;98871.44;3142247;28;20059;-72
2022/11/24 06:34:58;;;;;;;138.80;73.63;;;;;;;9.55;76.67;98850.34;3145122;28;20068;-74
2022/11/24 06:36:30;;;;;;;81.47;39.55;;;;;;;9.95;75.94;98875.84;3145853;28;20423;-74
2022/11/24 06:38:02;;;;;;;131.35;64.13;;;;;;;10.19;75.25;98876.19;3145286;28;20098;-71
2022/11/24 06:39:34;;;;;;;60.97;32.92;;;;;;;10.46;74.45;98873.75;3144457;28;20122;-69
2022/11/24 06:41:09;;;;;;;131.02;57.38;;;;;;;10.65;73.46;98861.31;3144877;28;20098;-73
2022/11/24 06:42:41;;;;;;;150.30;71.30;;;;;;;10.91;72.71;98874.50;3145500;28;20049;-75
2022/11/24 06:44:12;;;;;;;50.85;22.75;;;;;;;11.21;72.20;98881.34;3144468;28;20522;-70
2022/11/24 06:45:44;;;;;;;32.65;15.43;;;;;;;11.52;71.06;98878.50;3144009;28;20052;-73
2022/11/24 06:47:16;;;;;;;30.05;16.38;;;;;;;11.87;70.00;98879.81;3144004;28;20446;-72
2022/11/24 06:48:51;;;;;;;29.52;13.60;;;;;;;12.18;69.14;98868.19;3145767;28;20284;-69
2022/11/24 06:50:23;;;;;;;29.95;14.88;;;;;;;12.64;68.16;98878.97;3145497;28;20044;-70
2022/11/24 06:51:54;;;;;;;30.05;13.52;;;;;;;13.00;67.19;98877.38;3145277;28;20048;-75
2022/11/24 06:53:26;;;;;;;28.25;13.27;;;;;;;13.40;66.33;98877.22;3145462;28;20057;-76
2022/11/24 06:54:58;;;;;;;27.55;11.88;;;;;;;13.77;64.99;98874.56;3145525;28;20098;-72
2022/11/24 06:56:30;;;;;;;28.15;11.05;;;;;;;14.13;63.90;98884.09;3145305;28;20044;-72
2022/11/24 06:58:01;;;;;;;29.23;11.60;;;;;;;14.48;62.81;98880.59;3145109;28;20056;-72
2022/11/24 06:59:33;;;;;;;18.35;9.77;;;;;;;14.81;62.09;98879.00;3145438;28;20052;-73
2022/11/24 07:01:05;;;;;;;22.95;8.98;;;;;;;15.17;61.08;98878.78;3145669;28;20056;-71
2022/11/24 07:02:37;;;;;;;20.92;9.43;;;;;;;15.51;60.07;98880.50;3145417;28;20456;-72
2022/11/24 07:04:10;;;;;;;18.70;7.63;;;;;;;15.82;58.96;98886.75;3145093;28;20052;-68
2022/11/24 07:05:42;;;;;;;;;;;;;;;16.20;59.37;98888.03;3145835;28;20084;-69
2022/11/24 07:07:14;;;;;;;13.98;6.93;;;;;;;16.43;57.90;98884.31;3145237;28;19936;-68
2022/11/24 07:08:46;;;;;;;18.08;7.03;;;;;;;16.68;57.10;98876.97;3145073;28;20041;-68
2022/11/24 07:10:18;;;;;;;14.60;6.18;;;;;;;16.86;56.29;98856.19;3144976;28;20045;-69
2022/11/24 07:11:49;;;;;;;11.75;6.13;;;;;;;17.27;55.44;98877.13;3145101;28;20414;-70
2022/11/24 07:13:21;;;;;;;17.05;6.43;;;;;;;17.58;54.69;98873.59;3142303;28;20052;-67
2022/11/24 07:14:53;;;;;;;14.45;5.88;;;;;;;17.87;54.00;98885.00;3144075;28;20048;-69